Time;durP1;ratioP1;P1;durP2;ratioP2;P2;SDS_P1;SDS_P2;PMS_P1;PMS_P2;Temp;Humidity;BMP_temperature;BMP_pressure;BME280_temperature;BME280_humidity;BME280_pressure;Samples;Min_cycle;Max_cycle;Signal;HPM_P1;HPM_P2
2022/09/03 00:01:45;;;;;;;2.72;1.65;;;;;;;12.64;58.43;101280.94;7399689;19;20023;-68
2022/09/03 00:04:21;;;;;;;3.13;1.42;;;;;;;12.61;58.43;101286.25;7397928;19;20019;-68
2022/09/03 00:06:54;;;;;;;2.33;1.48;;;;;;;12.57;58.63;101281.94;7398928;19;20006;-68
2022/09/03 00:09:28;;;;;;;4.53;1.77;;;;;;;12.53;58.96;101289.88;7399379;19;20010;-68
2022/09/03 00:12:05;;;;;;;3.70;1.23;;;;;;;12.49;58.98;101279.47;7398837;19;20018;-68
2022/09/03 00:14:40;;;;;;;2.20;1.30;;;;;;;12.45;58.95;101278.69;7397379;19;20078;-68
2022/09/03 00:17:13;;;;;;;3.17;1.35;;;;;;;12.41;59.07;101281.41;7399262;19;20028;-68
2022/09/03 00:19:49;;;;;;;2.05;1.52;;;;;;;12.37;59.30;101286.72;7399787;19;20018;-68
2022/09/03 00:22:23;;;;;;;1.75;1.50;;;;;;;12.36;59.32;101281.50;7398858;19;20379;-68
2022/09/03 00:24:53;;;;;;;1.92;1.50;;;;;;;12.32;59.49;101278.06;7396111;19;20036;-69
2022/09/03 00:27:28;;;;;;;2.20;1.50;;;;;;;12.30;59.66;101279.84;7399285;19;20022;-68
2022/09/03 00:30:02;;;;;;;1.90;1.70;;;;;;;12.27;59.82;101274.66;7398799;19;20018;-68
2022/09/03 00:32:41;;;;;;;2.72;1.38;;;;;;;12.25;59.89;101286.13;7398873;19;20007;-68
2022/09/03 00:35:15;;;;;;;3.58;1.70;;;;;;;12.21;60.14;101285.31;7395793;19;20043;-68
2022/09/03 00:37:44;;;;;;;2.33;1.70;;;;;;;12.18;60.04;101280.09;7397897;19;20015;-68
2022/09/03 00:40:24;;;;;;;2.47;2.13;;;;;;;12.15;60.16;101274.91;7397004;19;20059;-67
2022/09/03 00:43:06;;;;;;;3.30;1.80;;;;;;;12.12;60.37;101275.84;7398145;19;20011;-68
2022/09/03 00:45:41;;;;;;;2.20;2.00;;;;;;;12.09;60.40;101275.03;7397111;19;20015;-68
2022/09/03 00:48:21;;;;;;;2.50;1.88;;;;;;;12.06;60.39;101270.69;7398295;19;20023;-67
2022/09/03 00:51:04;;;;;;;8.20;2.00;;;;;;;12.03;60.40;101276.00;7398169;19;20343;-68
2022/09/03 00:53:42;;;;;;;2.50;2.03;;;;;;;11.99;60.61;101269.97;7397486;19;20026;-67
2022/09/03 00:56:19;;;;;;;3.80;1.80;;;;;;;11.96;60.70;101266.50;7397429;19;20130;-67
2022/09/03 00:59:03;;;;;;;3.72;2.05;;;;;;;11.94;60.85;101273.53;7395962;19;20090;-69
2022/09/03 01:01:42;;;;;;;2.10;1.52;;;;;;;11.88;60.99;101261.38;7397857;19;20364;-67
2022/09/03 01:04:26;;;;;;;1.92;1.65;;;;;;;11.86;61.04;101265.78;7395868;19;20023;-67
2022/09/03 01:07:03;;;;;;;2.75;1.83;;;;;;;11.82;61.09;101262.34;7397726;19;20022;-67
2022/09/03 01:09:47;;;;;;;2.80;1.52;;;;;;;11.78;61.26;101265.94;7397344;19;20015;-67
2022/09/03 01:12:24;;;;;;;2.05;1.80;;;;;;;11.76;61.32;101257.19;7397507;19;20018;-68
2022/09/03 01:15:05;;;;;;;2.65;1.80;;;;;;;11.71;61.41;101253.78;7394876;19;20018;-68
2022/09/03 01:17:43;;;;;;;3.05;1.92;;;;;;;11.69;61.39;101252.94;7397187;19;20014;-67
2022/09/03 01:20:28;;;;;;;1.70;1.60;;;;;;;11.66;61.63;101260.88;7396530;19;20028;-67
2022/09/03 01:23:29;;;;;;;3.08;1.60;;;;;;;11.62;61.74;101251.34;7396193;19;20018;-68
2022/09/03 01:26:14;;;;;;;1.55;1.42;;;;;;;11.57;61.79;101251.41;7396233;19;20018;-68
2022/09/03 01:28:56;;;;;;;2.35;1.60;;;;;;;11.53;61.86;101255.84;7395277;19;20019;-67
2022/09/03 01:31:36;;;;;;;2.67;2.08;;;;;;;11.51;61.91;101259.41;7396927;19;20018;-67
2022/09/03 01:34:14;;;;;;;2.85;1.73;;;;;;;11.48;62.19;101259.47;7394995;19;20018;-67
2022/09/03 01:36:51;;;;;;;1.95;1.70;;;;;;;11.40;62.37;101249.09;7398292;19;20018;-68
2022/09/03 01:39:31;;;;;;;3.50;1.88;;;;;;;11.39;62.48;101258.72;7396792;19;20102;-68
2022/09/03 01:42:15;;;;;;;2.78;1.83;;;;;;;11.35;62.67;101257.03;7396653;19;20042;-68
2022/09/03 01:45:07;;;;;;;4.75;2.30;;;;;;;11.29;62.76;101251.03;7394340;19;20014;-68
2022/09/03 01:47:50;;;;;;;2.63;1.40;;;;;;;11.26;63.03;101257.19;7396488;19;20028;-68
2022/09/03 01:53:50;;;;;;;4.93;1.83;;;;;;;11.18;63.17;101259.91;7388530;19;20532;-68
2022/09/03 01:56:33;;;;;;;4.38;2.00;;;;;;;11.15;63.20;101259.97;7394495;19;20070;-68
2022/09/03 01:59:09;;;;;;;2.83;1.67;;;;;;;11.10;63.67;101251.31;7395203;19;20491;-68
2022/09/03 02:01:47;;;;;;;2.03;1.50;;;;;;;11.07;63.59;101256.63;7393484;19;20484;-67
2022/09/03 02:04:22;;;;;;;2.78;1.90;;;;;;;11.03;63.76;101261.06;7395673;19;20364;-68
2022/09/03 02:06:50;;;;;;;3.40;2.05;;;;;;;11.01;63.83;101259.34;7395052;19;20046;-67
2022/09/03 02:09:19;;;;;;;3.45;1.63;;;;;;;10.98;63.95;101257.63;7394925;19;20391;-67
2022/09/03 02:11:53;;;;;;;3.17;2.08;;;;;;;10.94;64.11;101257.69;7393315;19;20078;-68
2022/09/03 02:14:22;;;;;;;;;;;;;;;10.92;64.07;101258.56;7396159;19;20015;-68
2022/09/03 02:16:53;;;;;;;2.78;2.13;;;;;;;10.87;63.97;101255.16;7394636;19;19932;-67
2022/09/03 02:19:23;;;;;;;2.78;2.20;;;;;;;10.86;64.16;101260.44;7395206;19;20037;-68
2022/09/03 02:21:55;;;;;;;2.50;1.80;;;;;;;10.83;64.29;101260.47;7392631;19;20484;-68
2022/09/03 02:24:24;;;;;;;5.50;2.70;;;;;;;10.80;64.53;101264.00;7394635;19;20018;-67
2022/09/03 02:26:52;;;;;;;3.97;2.20;;;;;;;10.78;64.67;101262.28;7394806;19;20028;-68
2022/09/03 02:29:22;;;;;;;3.88;2.10;;;;;;;10.75;64.79;101258.84;7394321;19;20372;-68
2022/09/03 02:31:53;;;;;;;3.28;2.28;;;;;;;10.74;64.94;101253.59;7393011;19;20015;-68
2022/09/03 02:34:21;;;;;;;4.72;2.33;;;;;;;10.72;64.94;101263.25;7392552;19;20031;-66
2022/09/03 02:36:51;;;;;;;2.20;2.00;;;;;;;10.69;64.82;101258.91;7394053;19;20484;-68
2022/09/03 02:39:19;;;;;;;3.05;2.38;;;;;;;10.69;65.20;101258.03;7393891;19;20011;-68
2022/09/03 02:41:56;;;;;;;4.35;2.58;;;;;;;10.66;65.29;101258.94;7392396;19;20022;-67
2022/09/03 02:44:30;;;;;;;3.30;2.47;;;;;;;10.65;65.32;101251.09;7392773;19;20019;-68
2022/09/03 02:47:04;;;;;;;4.55;2.42;;;;;;;10.62;65.67;101262.50;7394791;19;20015;-68
2022/09/03 02:49:34;;;;;;;3.53;2.20;;;;;;;10.58;65.61;101252.97;7391970;19;20489;-68
2022/09/03 02:52:05;;;;;;;3.40;2.25;;;;;;;10.57;65.66;101246.81;7391754;19;20483;-67
2022/09/03 02:54:38;;;;;;;3.50;2.35;;;;;;;10.55;65.95;101252.97;7392681;19;20015;-68
2022/09/03 02:57:07;;;;;;;3.53;2.10;;;;;;;10.52;65.98;101253.88;7394538;19;20010;-67
2022/09/03 02:59:36;;;;;;;2.28;1.73;;;;;;;10.51;66.05;101257.41;7394279;19;21065;-68
2022/09/03 03:02:07;;;;;;;2.30;2.10;;;;;;;10.47;66.26;101260.94;7391398;19;20018;-68
2022/09/03 03:04:37;;;;;;;2.45;1.92;;;;;;;10.47;66.32;101252.22;7391506;19;20386;-67
2022/09/03 03:07:05;;;;;;;5.28;1.90;;;;;;;10.36;66.53;101236.63;7394793;19;20018;-68
2022/09/03 03:09:34;;;;;;;3.45;2.00;;;;;;;10.43;66.42;101251.41;7400713;19;20488;-68
2022/09/03 03:12:02;;;;;;;3.38;2.10;;;;;;;10.39;66.53;101247.94;7398614;19;20412;-68
2022/09/03 03:14:31;;;;;;;2.97;2.28;;;;;;;10.39;66.75;101247.09;7400969;19;20020;-68
2022/09/03 03:16:59;;;;;;;3.22;2.13;;;;;;;10.37;66.64;101248.84;7397890;19;20354;-68
2022/09/03 03:19:30;;;;;;;2.90;2.40;;;;;;;10.35;66.96;101248.84;7400261;19;20494;-68
2022/09/03 03:21:59;;;;;;;3.53;2.40;;;;;;;10.34;67.12;101262.84;7397932;19;20037;-68
2022/09/03 03:24:28;;;;;;;3.33;2.28;;;;;;;10.32;67.04;101259.34;7400602;19;20082;-68
2022/09/03 03:26:58;;;;;;;3.10;2.42;;;;;;;10.30;67.24;101257.63;7400728;19;20014;-67
2022/09/03 03:29:26;;;;;;;2.95;2.70;;;;;;;10.28;67.33;101263.78;7397943;19;20007;-68
2022/09/03 03:31:55;;;;;;;3.40;2.30;;;;;;;10.27;67.46;101274.28;7398666;19;20018;-67
2022/09/03 03:34:24;;;;;;;3.92;3.10;;;;;;;10.25;67.57;101258.56;7399948;19;20489;-68
2022/09/03 03:36:55;;;;;;;3.33;2.72;;;;;;;10.23;67.66;101260.34;7397697;19;20024;-67
2022/09/03 03:39:23;;;;;;;2.97;2.60;;;;;;;10.21;67.74;101263.88;7400419;19;20033;-67
2022/09/03 03:41:52;;;;;;;3.40;3.08;;;;;;;10.19;67.88;101263.88;7397250;19;20031;-68
2022/09/03 03:44:21;;;;;;;5.53;2.90;;;;;;;10.17;67.83;101263.03;7399932;19;20014;-68
2022/09/03 03:46:49;;;;;;;2.63;2.00;;;;;;;10.14;68.10;101264.84;7399601;19;20507;-67
2022/09/03 03:49:18;;;;;;;4.10;2.40;;;;;;;10.10;68.23;101262.25;7399457;19;20027;-67
2022/09/03 03:51:46;;;;;;;3.53;2.17;;;;;;;10.08;68.35;101266.66;7396902;19;20650;-68
2022/09/03 03:54:18;;;;;;;2.50;1.63;;;;;;;10.04;68.55;101253.59;7397762;19;20015;-68
2022/09/03 03:56:46;;;;;;;3.28;1.83;;;;;;;10.00;68.62;101262.38;7399632;19;20491;-67
2022/09/03 03:59:15;;;;;;;2.35;2.03;;;;;;;9.96;68.71;101264.16;7396926;19;20379;-68
2022/09/03 04:01:43;;;;;;;2.33;1.73;;;;;;;9.93;68.88;101264.19;7397674;19;20023;-68
2022/09/03 04:04:13;;;;;;;1.88;1.55;;;;;;;9.90;69.08;101264.22;7399340;19;20031;-67
2022/09/03 04:06:41;;;;;;;2.10;1.65;;;;;;;9.86;69.01;101265.16;7399314;19;20018;-68
2022/09/03 04:09:10;;;;;;;3.17;1.80;;;;;;;9.83;69.15;101267.78;7399172;19;20022;-68
2022/09/03 04:11:41;;;;;;;4.85;2.03;;;;;;;9.79;69.29;101266.94;7396751;19;20074;-68
2022/09/03 04:14:10;;;;;;;4.97;2.30;;;;;;;9.77;69.38;101272.22;7396342;19;20014;-67
2022/09/03 04:16:39;;;;;;;3.92;2.08;;;;;;;9.75;69.52;101267.88;7398952;19;20031;-67
2022/09/03 04:19:07;;;;;;;3.38;1.90;;;;;;;9.74;69.69;101268.75;7397449;19;20031;-68
2022/09/03 04:21:36;;;;;;;4.13;2.22;;;;;;;9.71;69.71;101266.16;7396375;19;20039;-68
2022/09/03 04:24:06;;;;;;;4.00;2.22;;;;;;;9.69;69.94;101266.19;7396514;19;20028;-67
2022/09/03 04:26:35;;;;;;;3.58;2.10;;;;;;;9.66;69.86;101260.97;7396916;19;20094;-68
2022/09/03 04:29:09;;;;;;;3.38;2.20;;;;;;;9.65;70.14;101258.38;7396131;19;20023;-68
2022/09/03 04:32:51;;;;;;;2.83;2.15;;;;;;;9.63;70.23;101268.88;7396780;19;20074;-68
2022/09/03 04:34:27;;;;;;;3.00;1.65;;;;;;;9.61;70.16;101266.22;7397643;19;20017;-67
2022/09/03 04:36:56;;;;;;;3.25;2.03;;;;;;;9.60;70.26;101267.13;7396043;19;20026;-68
2022/09/03 04:39:25;;;;;;;6.75;2.80;;;;;;;9.59;70.42;101260.16;7398161;19;20014;-67
2022/09/03 04:41:53;;;;;;;6.15;3.60;;;;;;;9.59;70.49;101257.53;7395882;19;20022;-68
2022/09/03 04:44:24;;;;;;;4.05;3.10;;;;;;;9.60;70.56;101261.91;7397611;19;20350;-68
2022/09/03 04:46:53;;;;;;;3.72;2.72;;;;;;;9.60;70.58;101254.03;7395600;19;20082;-68
2022/09/03 04:49:23;;;;;;;2.67;2.20;;;;;;;9.61;70.68;101261.00;7397424;19;20383;-67
2022/09/03 04:51:51;;;;;;;10.43;6.45;;;;;;;9.62;70.75;101257.50;7396032;19;20383;-67
2022/09/03 04:54:20;;;;;;;7.57;4.63;;;;;;;9.63;70.80;101261.00;7395094;19;20019;-68
2022/09/03 04:56:48;;;;;;;4.85;3.90;;;;;;;9.66;70.82;101260.09;7396259;19;20078;-68
2022/09/03 04:59:17;;;;;;;10.80;6.35;;;;;;;9.69;71.04;101260.94;7397487;19;20082;-68
2022/09/03 05:01:48;;;;;;;4.82;2.30;;;;;;;9.73;71.06;101267.00;7396079;19;20087;-68
2022/09/03 05:04:16;;;;;;;4.40;2.35;;;;;;;9.78;71.18;101265.19;7396955;19;20027;-67
2022/09/03 05:06:45;;;;;;;7.20;4.28;;;;;;;9.82;71.13;101273.91;7396974;19;20018;-68
2022/09/03 05:09:13;;;;;;;5.07;2.80;;;;;;;9.86;71.08;101273.00;7396821;19;20375;-68
2022/09/03 05:11:42;;;;;;;3.75;2.42;;;;;;;9.93;71.16;101272.94;7394772;19;20536;-68
2022/09/03 05:14:11;;;;;;;4.85;2.40;;;;;;;9.97;71.24;101278.13;7395116;19;20010;-67
2022/09/03 05:16:40;;;;;;;3.38;2.17;;;;;;;10.02;71.13;101271.06;7396852;19;20074;-68
2022/09/03 05:19:11;;;;;;;3.65;2.08;;;;;;;10.08;71.14;101276.25;7394910;19;20022;-68
2022/09/03 05:21:39;;;;;;;3.85;2.08;;;;;;;10.13;71.00;101277.06;7395626;19;20025;-68
2022/09/03 05:24:10;;;;;;;3.28;1.80;;;;;;;10.21;70.98;101269.09;7395662;19;20014;-67
2022/09/03 05:26:40;;;;;;;6.85;2.03;;;;;;;10.26;71.09;101275.16;7395330;19;20014;-68
2022/09/03 05:29:09;;;;;;;3.20;1.70;;;;;;;10.34;70.97;101269.84;7396905;19;20094;-67
2022/09/03 05:31:40;;;;;;;2.40;1.85;;;;;;;10.40;71.11;101275.03;7392592;19;20035;-67
2022/09/03 05:34:11;;;;;;;3.17;1.88;;;;;;;10.48;70.80;101274.97;7394815;19;20010;-67
2022/09/03 05:36:40;;;;;;;4.53;1.85;;;;;;;10.54;70.67;101278.38;7396259;19;20423;-67
2022/09/03 05:39:09;;;;;;;3.88;1.90;;;;;;;10.62;70.52;101278.25;7395715;19;20378;-67
2022/09/03 05:41:37;;;;;;;3.45;1.85;;;;;;;10.69;70.46;101277.28;7394047;19;20014;-68
2022/09/03 05:44:06;;;;;;;10.63;5.90;;;;;;;10.78;70.27;101275.41;7393730;19;20014;-67
2022/09/03 05:46:36;;;;;;;7.10;5.25;;;;;;;10.84;70.22;101273.59;7395384;19;20400;-67
2022/09/03 05:49:06;;;;;;;8.18;6.20;;;;;;;10.94;70.25;101265.56;7396211;19;20090;-68
2022/09/03 05:51:39;;;;;;;4.88;3.28;;;;;;;11.02;70.21;101269.81;7394102;19;20018;-67
2022/09/03 05:54:08;;;;;;;5.72;4.13;;;;;;;11.12;70.05;101270.56;7394150;19;20014;-67
2022/09/03 05:56:38;;;;;;;4.25;2.60;;;;;;;11.21;69.85;101262.50;7393510;19;20014;-67
2022/09/03 05:59:09;;;;;;;4.78;2.38;;;;;;;11.29;69.74;101264.16;7393955;19;20014;-67
2022/09/03 06:01:39;;;;;;;4.28;1.80;;;;;;;11.37;69.46;101264.88;7394335;19;20099;-66
2022/09/03 06:04:10;;;;;;;4.75;2.70;;;;;;;11.45;69.19;101270.00;7395230;19;20423;-66
2022/09/03 06:06:42;;;;;;;4.25;2.63;;;;;;;11.52;69.14;101269.88;7395521;19;20022;-66
2022/09/03 06:09:15;;;;;;;3.65;1.88;;;;;;;11.61;69.00;101270.63;7394909;19;20536;-65
2022/09/03 06:11:44;;;;;;;3.25;2.03;;;;;;;11.69;68.82;101271.34;7393619;19;20026;-65
2022/09/03 06:14:15;;;;;;;3.50;2.50;;;;;;;11.78;68.54;101272.94;7394608;19;20019;-66
2022/09/03 06:16:47;;;;;;;5.47;2.60;;;;;;;11.88;68.34;101271.88;7393765;19;20026;-67
2022/09/03 06:19:16;;;;;;;4.07;2.08;;;;;;;11.97;68.07;101271.75;7395398;19;20015;-66
2022/09/03 06:21:48;;;;;;;2.55;2.13;;;;;;;12.06;67.85;101278.59;7392818;19;20014;-66
2022/09/03 06:24:19;;;;;;;4.32;2.10;;;;;;;12.15;67.87;101282.81;7395061;19;20018;-66
2022/09/03 06:26:48;;;;;;;3.83;2.75;;;;;;;12.26;67.59;101285.19;7395549;19;20066;-66
2022/09/03 06:29:19;;;;;;;2.92;1.90;;;;;;;12.34;67.36;101278.88;7394661;19;20022;-67
2022/09/03 06:31:47;;;;;;;6.20;2.80;;;;;;;12.46;67.05;101283.03;7393557;19;20476;-66
2022/09/03 06:34:17;;;;;;;3.08;1.77;;;;;;;12.55;66.89;101274.94;7394088;19;20017;-66
2022/09/03 06:36:49;;;;;;;6.00;2.55;;;;;;;12.66;66.63;101271.22;7394684;19;20018;-66
2022/09/03 06:39:17;;;;;;;3.42;2.38;;;;;;;12.73;66.44;101271.97;7394171;19;20081;-65
2022/09/03 06:41:50;;;;;;;5.32;2.20;;;;;;;12.82;66.16;101266.47;7391865;19;20488;-65
2022/09/03 06:44:19;;;;;;;4.47;2.20;;;;;;;12.89;65.87;101268.06;7401694;19;20014;-66
2022/09/03 06:46:49;;;;;;;5.63;2.08;;;;;;;12.95;65.56;101267.91;7401341;19;20022;-65
2022/09/03 06:49:18;;;;;;;4.40;2.13;;;;;;;13.00;65.45;101265.19;7401922;19;20178;-66
2022/09/03 06:51:49;;;;;;;2.83;2.25;;;;;;;13.07;65.18;101263.25;7399471;19;20015;-65
2022/09/03 06:54:18;;;;;;;3.55;1.98;;;;;;;13.10;64.91;101261.41;7398414;19;20010;-65
2022/09/03 06:56:46;;;;;;;3.67;1.92;;;;;;;13.20;64.91;101270.84;7401765;19;20027;-65
2022/09/03 06:59:16;;;;;;;4.50;1.95;;;;;;;13.29;64.47;101263.63;7401334;19;20019;-67
2022/09/03 07:01:45;;;;;;;3.45;2.05;;;;;;;13.39;64.13;101273.03;7399319;19;20036;-65
2022/09/03 07:04:15;;;;;;;3.08;1.80;;;;;;;13.48;63.80;101269.31;7401092;19;20078;-69
2022/09/03 07:06:46;;;;;;;3.10;1.75;;;;;;;13.60;63.73;101268.16;7398423;19;20070;-65
2022/09/03 07:09:17;;;;;;;2.67;2.10;;;;;;;13.69;63.39;101267.91;7401353;19;20110;-68
2022/09/03 07:11:48;;;;;;;3.63;2.03;;;;;;;13.79;63.09;101277.28;7398595;19;20036;-66
2022/09/03 07:14:17;;;;;;;3.50;1.77;;;;;;;13.89;63.10;101275.28;7401195;19;20014;-66
2022/09/03 07:16:46;;;;;;;3.85;2.08;;;;;;;13.96;62.66;101268.94;7400662;19;20014;-69
2022/09/03 07:19:15;;;;;;;42.08;23.52;;;;;;;14.02;62.37;101268.75;7398017;19;20018;-65
2022/09/03 07:21:44;;;;;;;6.43;4.03;;;;;;;14.09;62.08;101274.75;7398748;19;20074;-66
2022/09/03 07:24:14;;;;;;;3.38;2.20;;;;;;;14.13;61.89;101265.81;7400202;19;20021;-65
2022/09/03 07:26:47;;;;;;;4.00;2.47;;;;;;;14.20;61.63;101270.94;7397478;19;20006;-65
2022/09/03 07:29:18;;;;;;;3.10;1.73;;;;;;;14.25;61.80;101274.28;7400691;19;20015;-65
2022/09/03 07:31:47;;;;;;;3.88;2.00;;;;;;;14.30;61.89;101267.09;7397948;19;20031;-66
2022/09/03 07:34:16;;;;;;;2.72;2.05;;;;;;;14.36;61.45;101269.56;7400403;19;20346;-65
2022/09/03 07:36:46;;;;;;;3.35;1.40;;;;;;;14.40;61.38;101268.56;7399572;19;20512;-66
2022/09/03 07:39:21;;;;;;;3.95;1.42;;;;;;;14.46;61.40;101264.91;7397521;19;20019;-66
2022/09/03 07:41:53;;;;;;;3.85;2.17;;;;;;;14.55;60.99;101269.03;7397807;19;20035;-66
2022/09/03 07:44:23;;;;;;;4.90;1.63;;;;;;;14.60;60.73;101267.13;7398229;19;20019;-66
2022/09/03 07:46:52;;;;;;;3.05;1.80;;;;;;;14.64;60.45;101267.00;7399335;19;20018;-68
2022/09/03 07:49:21;;;;;;;3.75;1.42;;;;;;;14.71;60.11;101266.81;7396929;19;20358;-66
2022/09/03 07:51:57;;;;;;;3.75;2.00;;;;;;;14.75;60.11;101269.31;7397745;19;20049;-67
2022/09/03 07:54:26;;;;;;;3.92;1.70;;;;;;;14.82;59.74;101273.50;7395506;19;20578;-66
2022/09/03 07:56:57;;;;;;;3.80;1.40;;;;;;;14.89;59.82;101274.16;7399503;19;20015;-67
2022/09/03 07:59:26;;;;;;;3.03;2.03;;;;;;;14.96;59.75;101274.84;7398835;19;20022;-66
2022/09/03 08:01:54;;;;;;;6.78;1.70;;;;;;;15.05;59.79;101271.03;7397100;19;20030;-66
2022/09/03 08:04:23;;;;;;;3.58;1.77;;;;;;;15.15;59.13;101280.41;7399005;19;20019;-67
2022/09/03 08:06:54;;;;;;;3.95;1.80;;;;;;;15.24;58.86;101273.94;7398752;19;20031;-66
2022/09/03 08:09:22;;;;;;;4.43;1.45;;;;;;;15.34;58.92;101267.44;7396446;19;20014;-67
2022/09/03 08:11:51;;;;;;;4.00;1.67;;;;;;;15.42;58.49;101273.34;7396163;19;20351;-66
2022/09/03 08:14:22;;;;;;;4.07;1.40;;;;;;;15.50;58.39;101273.09;7398414;19;20077;-64
2022/09/03 08:16:50;;;;;;;3.60;1.30;;;;;;;15.59;58.50;101277.19;7396672;19;20018;-65
2022/09/03 08:19:19;;;;;;;3.47;1.63;;;;;;;15.69;58.44;101262.72;7398281;19;20548;-65
2022/09/03 08:21:48;;;;;;;3.47;1.40;;;;;;;15.84;58.06;101268.44;7396848;19;20073;-65
2022/09/03 08:24:19;;;;;;;3.03;1.30;;;;;;;15.94;57.54;101262.75;7396068;19;20011;-65
2022/09/03 08:26:48;;;;;;;2.38;1.13;;;;;;;16.05;56.93;101264.16;7398230;19;20018;-65
2022/09/03 08:29:17;;;;;;;2.33;1.30;;;;;;;16.16;56.32;101264.63;7397701;19;20078;-65
2022/09/03 08:31:48;;;;;;;2.33;1.15;;;;;;;16.25;55.88;101252.81;7396321;19;20018;-65
2022/09/03 08:34:17;;;;;;;3.00;1.30;;;;;;;16.36;55.99;101249.78;7395425;19;20018;-63
2022/09/03 08:36:45;;;;;;;1.85;1.45;;;;;;;16.45;55.34;101258.25;7397703;19;20098;-63
2022/09/03 08:39:15;;;;;;;3.55;1.88;;;;;;;16.53;54.57;101250.00;7397323;19;20035;-65
2022/09/03 08:42:11;;;;;;;3.03;1.30;;;;;;;16.63;53.99;101250.53;7395292;19;20417;-63
2022/09/03 08:44:47;;;;;;;3.35;1.75;;;;;;;16.74;53.78;101247.44;7398020;19;20025;-63
2022/09/03 08:47:23;;;;;;;2.00;1.23;;;;;;;16.84;51.54;101253.25;7396242;19;20022;-64
2022/09/03 08:49:56;;;;;;;2.10;1.30;;;;;;;16.94;52.92;101246.66;7397069;19;20484;-64
2022/09/03 08:52:33;;;;;;;3.63;1.63;;;;;;;17.02;51.33;101244.59;7395533;19;20029;-64
2022/09/03 08:55:25;;;;;;;1.83;1.40;;;;;;;17.13;50.22;101245.94;7395351;19;20369;-64
2022/09/03 08:57:59;;;;;;;3.00;1.33;;;;;;;17.22;51.02;101235.78;7397665;19;20011;-64
2022/09/03 09:00:48;;;;;;;4.05;1.38;;;;;;;17.32;50.32;101235.41;7396652;19;20070;-64
2022/09/03 09:03:33;;;;;;;4.93;1.55;;;;;;;17.42;50.07;101234.09;7396114;19;20031;-64
2022/09/03 09:06:13;;;;;;;3.53;1.15;;;;;;;17.51;49.40;101235.50;7396519;19;20380;-65
2022/09/03 09:08:50;;;;;;;4.22;1.95;;;;;;;17.62;49.40;101241.19;7397563;19;20070;-64
2022/09/03 09:11:29;;;;;;;1.85;1.00;;;;;;;17.71;48.18;101234.63;7395767;19;20030;-64
2022/09/03 09:14:03;;;;;;;2.22;1.00;;;;;;;17.82;48.47;101234.13;7396923;19;20383;-64
2022/09/03 09:16:40;;;;;;;1.38;1.00;;;;;;;17.94;47.64;101230.97;7397455;19;20031;-64
2022/09/03 09:19:26;;;;;;;2.00;0.93;;;;;;;18.04;46.98;101229.63;7396731;19;20015;-64
2022/09/03 09:22:00;;;;;;;2.60;1.10;;;;;;;18.15;47.48;101212.38;7394763;19;20357;-64
2022/09/03 09:24:37;;;;;;;5.70;1.20;;;;;;;18.23;47.59;101216.34;7394477;19;20018;-64
2022/09/03 09:27:07;;;;;;;2.67;1.08;;;;;;;18.32;47.24;101215.06;7396573;19;20022;-64
2022/09/03 09:29:39;;;;;;;2.67;1.35;;;;;;;18.40;46.44;101218.25;7394217;19;20022;-65
2022/09/03 09:32:12;;;;;;;2.53;1.00;;;;;;;18.49;45.82;101210.78;7393959;19;20036;-65
2022/09/03 09:34:43;;;;;;;2.30;1.02;;;;;;;18.57;45.26;101208.59;7393912;19;20086;-65
2022/09/03 09:37:14;;;;;;;3.70;0.88;;;;;;;18.66;44.73;101213.47;7395412;19;20021;-65
2022/09/03 09:39:56;;;;;;;1.95;0.75;;;;;;;18.76;43.81;101203.25;7394422;19;20210;-65
2022/09/03 09:42:26;;;;;;;4.00;1.00;;;;;;;18.84;44.28;101203.75;7393603;19;20077;-65
2022/09/03 09:44:55;;;;;;;2.45;1.00;;;;;;;18.93;43.71;101198.94;7395814;19;20440;-64
2022/09/03 09:47:27;;;;;;;1.42;0.98;;;;;;;19.01;42.69;101194.97;7395793;19;20086;-65
2022/09/03 09:50:01;;;;;;;2.60;1.15;;;;;;;19.09;41.58;101188.41;7394422;19;20014;-66
2022/09/03 09:52:31;;;;;;;2.15;1.38;;;;;;;19.16;42.11;101195.13;7393081;19;20031;-66
2022/09/03 09:55:09;;;;;;;1.48;1.08;;;;;;;19.20;40.21;101192.22;7393319;19;20022;-67
2022/09/03 09:57:39;;;;;;;1.33;0.88;;;;;;;19.27;41.80;101192.78;7394051;19;20014;-66
2022/09/03 10:00:11;;;;;;;3.00;1.17;;;;;;;19.34;40.84;101183.53;7395223;19;20010;-66
2022/09/03 10:02:41;;;;;;;7.13;1.70;;;;;;;19.46;40.73;101198.03;7394677;19;20074;-66
2022/09/03 10:05:23;;;;;;;1.85;1.33;;;;;;;19.56;37.74;101186.88;7395069;19;20010;-66
2022/09/03 10:07:58;;;;;;;4.25;1.10;;;;;;;19.64;38.01;101195.34;7393303;19;20035;-65
2022/09/03 10:10:27;;;;;;;3.53;1.10;;;;;;;19.68;39.41;101187.09;7395505;19;20015;-66
2022/09/03 10:13:01;;;;;;;3.90;2.70;;;;;;;19.68;38.13;101187.09;7394858;19;20010;-66
2022/09/03 10:15:37;;;;;;;8.82;3.85;;;;;;;19.68;38.38;101178.25;7395449;19;20019;-66
2022/09/03 10:18:12;;;;;;;5.63;3.65;;;;;;;19.70;38.22;101174.56;7391790;19;20019;-66
2022/09/03 10:20:50;;;;;;;7.90;4.70;;;;;;;19.72;37.95;101178.97;7392283;19;20497;-65
2022/09/03 10:23:23;;;;;;;13.35;7.13;;;;;;;19.76;38.60;101178.69;7392761;19;20035;-65
2022/09/03 10:26:06;;;;;;;4.27;2.27;;;;;;;19.78;38.19;101165.31;7391997;19;20050;-66
2022/09/03 10:28:40;;;;;;;3.17;1.42;;;;;;;19.85;38.47;101162.28;7393383;19;20420;-65
2022/09/03 10:31:35;;;;;;;2.75;1.88;;;;;;;19.93;37.73;101166.31;7392346;19;20082;-66
2022/09/03 10:34:14;;;;;;;1.75;1.13;;;;;;;20.01;38.22;101161.44;7394630;19;20355;-66
2022/09/03 10:36:53;;;;;;;3.78;1.88;;;;;;;20.11;37.39;101159.13;7393922;19;20018;-66
2022/09/03 10:39:25;;;;;;;3.45;1.33;;;;;;;20.16;37.18;101157.06;7392210;19;20083;-66
2022/09/03 10:42:08;;;;;;;1.90;1.20;;;;;;;20.22;36.63;101156.72;7392285;19;20480;-63
2022/09/03 10:44:53;;;;;;;1.98;1.10;;;;;;;20.29;36.60;101154.56;7391829;19;20112;-66
2022/09/03 10:47:39;;;;;;;4.38;1.33;;;;;;;20.39;36.99;101157.59;7391625;19;20015;-66
2022/09/03 10:50:14;;;;;;;2.80;1.40;;;;;;;20.51;36.61;101159.56;7392649;19;20030;-66
2022/09/03 10:53:06;;;;;;;3.00;1.17;;;;;;;20.68;36.26;101145.25;7391893;19;20011;-66
2022/09/03 10:55:49;;;;;;;3.70;1.48;;;;;;;20.87;34.98;101158.38;7391269;19;20078;-65
2022/09/03 10:58:36;;;;;;;5.45;1.25;;;;;;;21.01;35.58;101156.72;7392394;19;20372;-65
2022/09/03 11:01:12;;;;;;;3.83;1.05;;;;;;;21.15;36.18;101143.41;7393055;19;20018;-66
2022/09/03 11:03:50;;;;;;;2.67;1.08;;;;;;;21.28;35.52;101141.75;7392647;19;20015;-65
2022/09/03 11:06:25;;;;;;;2.78;1.58;;;;;;;21.43;35.25;101147.97;7393988;19;20011;-65
2022/09/03 11:09:01;;;;;;;2.30;1.48;;;;;;;21.51;34.65;101151.94;7393270;19;20026;-65
2022/09/03 11:11:35;;;;;;;2.15;1.38;;;;;;;21.56;35.38;101150.75;7390940;19;20018;-65
2022/09/03 11:14:10;;;;;;;5.28;1.90;;;;;;;21.61;34.74;101131.75;7391639;19;20022;-65
2022/09/03 11:16:43;;;;;;;4.38;1.80;;;;;;;21.69;34.64;101126.81;7394314;19;20015;-66
2022/09/03 11:19:14;;;;;;;;;;;;;;;21.76;33.84;101130.81;7391879;19;20031;-67
2022/09/03 11:21:43;;;;;;;3.38;1.25;;;;;;;21.87;35.31;101123.94;7390851;19;19918;-67
2022/09/03 11:24:18;;;;;;;4.25;1.35;;;;;;;21.94;34.48;101126.13;7390344;19;20082;-66
2022/09/03 11:26:50;;;;;;;2.10;1.30;;;;;;;22.01;34.69;101125.72;7393362;19;20035;-67
2022/09/03 11:29:26;;;;;;;2.30;1.48;;;;;;;22.08;34.39;101121.72;7392733;19;20346;-66
2022/09/03 11:32:00;;;;;;;3.58;1.85;;;;;;;22.15;34.20;101120.34;7397980;19;20035;-66
2022/09/03 11:34:32;;;;;;;2.58;1.75;;;;;;;22.22;34.27;101113.66;7400504;19;20014;-66
2022/09/03 11:37:17;;;;;;;3.45;1.50;;;;;;;22.30;34.05;101118.50;7399948;19;20026;-67
2022/09/03 11:39:57;;;;;;;2.35;1.60;;;;;;;22.38;33.04;101113.56;7397320;19;20015;-66
2022/09/03 11:42:32;;;;;;;5.68;1.60;;;;;;;22.45;32.92;101108.66;7397163;19;20022;-66
2022/09/03 11:45:22;;;;;;;5.38;1.40;;;;;;;22.54;33.15;101105.34;7397601;19;20021;-67
2022/09/03 11:47:52;;;;;;;3.97;1.40;;;;;;;22.60;34.18;101099.59;7399566;19;20516;-67
2022/09/03 11:50:25;;;;;;;6.47;1.92;;;;;;;22.63;33.70;101095.00;7399581;19;20487;-67
2022/09/03 11:52:55;;;;;;;5.00;1.48;;;;;;;22.65;33.40;101101.13;7399679;19;20015;-67
2022/09/03 11:55:35;;;;;;;3.25;1.50;;;;;;;22.65;33.04;101109.16;7397392;19;20010;-67
2022/09/03 11:58:14;;;;;;;2.67;1.20;;;;;;;22.67;32.89;101110.75;7396564;19;20453;-67